Date,TemperatureHighF,TemperatureAvgF,TemperatureLowF,DewpointHighF,DewpointAvgF,DewpointLowF,HumidityHigh,HumidityAvg,HumidityLow,PressureMaxIn,PressureMinIn,WindSpeedMaxMPH,WindSpeedAvgMPH,GustSpeedMaxMPH,PrecipitationSumIn
2013-7-2,68.7,67.2,66.7,66.0,51.9,-99.9,96,86,92,29.99,29.95,10,5,7,0.74
2013-7-3,78.1,71.4,65.0,68.0,65.8,64.0,98,83,65,30.05,29.97,18,5,0,0.01
2013-7-4,78.8,70.1,61.3,68.0,63.4,60.0,98,81,55,30.11,30.03,4,0,0,0.00
2013-7-5,80.9,73.2,64.8,70.0,67.5,64.0,97,83,65,30.08,30.00,10,2,0,0.00
2013-7-6,75.3,71.2,68.1,71.0,68.8,67.0,97,92,84,30.06,29.97,11,2,0,0.23
2013-7-7,81.1,72.9,64.8,73.0,68.7,64.0,97,87,69,30.03,29.95,13,5,0,0.00
2013-7-8,82.0,75.5,69.0,76.0,71.5,67.0,94,87,78,30.04,29.93,13,5,0,0.08
2013-7-9,86.1,79.7,73.7,78.0,74.8,72.0,94,85,74,29.97,29.86,13,5,0,0.00
2013-7-10,83.2,75.7,63.5,78.0,71.4,61.0,95,86,70,29.94,29.78,35,7,0,1.40
2013-7-11,77.2,67.1,57.6,62.0,58.7,56.0,96,76,50,30.04,29.93,15,4,0,0.00
2013-7-12,79.5,69.1,57.1,65.0,59.7,55.0,95,74,49,30.10,30.02,8,2,0,0.00
2013-7-13,83.4,72.1,58.8,69.0,64.3,57.0,95,78,59,30.12,30.07,8,2,0,0.00
2013-7-14,88.6,77.7,65.6,76.0,70.9,65.0,97,81,60,30.16,30.11,1,0,0,0.00
2013-7-15,88.3,79.4,72.0,77.0,73.8,71.0,97,84,65,30.24,30.16,10,2,0,0.00
2013-7-16,91.7,81.0,69.8,78.0,73.3,69.0,98,79,55,30.29,30.22,6,1,0,0.00
2013-7-17,91.5,81.4,71.5,77.0,73.7,71.0,97,79,56,30.29,30.13,10,1,0,0.00
2013-7-18,91.0,81.6,72.1,78.0,74.6,71.0,96,81,59,30.16,29.95,10,2,0,0.00
2013-7-19,89.8,82.2,73.9,78.0,75.2,72.0,93,80,64,29.97,29.76,22,7,0,0.00
2013-7-20,86.3,79.0,69.1,76.0,72.3,66.0,96,81,57,29.86,29.73,15,5,0,0.36
2013-7-21,87.3,75.9,64.7,73.0,68.9,64.0,96,80,56,29.93,29.83,5,1,0,0.00
2013-7-22,82.3,73.9,67.0,73.0,69.6,66.0,97,87,68,29.85,29.73,6,1,0,0.77
2013-7-23,82.0,71.3,59.9,70.0,64.6,55.0,96,80,65,29.87,29.66,15,6,19,0.00
2013-7-24,72.8,62.7,52.3,60.0,54.6,50.3,94,76,53,30.00,29.87,11,4,15,0.00
2013-7-25,77.9,65.7,53.5,63.0,57.2,52.3,97,76,48,30.09,30.00,6,1,6,0.00
2013-7-26,61.5,59.7,57.7,58.3,57.4,55.8,94,92,89,30.07,30.02,0,0,0,0.00
2013-7-31,72.3,70.1,66.8,70.0,68.0,65.0,95,92,91,29.93,29.90,6,2,0,0.00